Terminal Aerodrome Forecast
Issued by NWS Portland, OR

Home | Current Version | Previous Version | Text Only | Print | Product List | Glossary On
Versions: 1 2 3 4 5 6 7 8 9 10 11 12 13 14 15
000
FTUS46 KPQR 312330
TAFAST
TAF
KAST 312330Z 0100/0124 32012G20KT P6SM SCT250
     FM010500 32009KT P6SM BKN019
     FM011000 26004KT 5SM BR OVC009
     FM011400 VRB03KT P6SM BKN012
     FM011800 28005KT P6SM BKN060 OVC120=

USA.gov is the U.S. government's official web portal to all federal, state and local government web resources and services.